Time;durP1;ratioP1;P1;durP2;ratioP2;P2;SDS_P1;SDS_P2;PMS_P1;PMS_P2;Temp;Humidity;BMP_temperature;BMP_pressure;BME280_temperature;BME280_humidity;BME280_pressure;Samples;Min_cycle;Max_cycle;Signal;HPM_P1;HPM_P2
2022/03/28 00:01:19;;;;;;;26.07;9.53;;;;;;;3.53;29.31;101811.64;125713;1099;102826;-79
2022/03/28 00:03:49;;;;;;;20.70;8.97;;;;;;;3.53;28.91;101807.34;125768;1098;104174;-79
2022/03/28 00:06:18;;;;;;;23.40;8.97;;;;;;;3.51;29.29;101808.91;125822;1099;104676;-79
2022/03/28 00:08:49;;;;;;;23.70;9.83;;;;;;;3.52;29.37;101818.53;125762;1098;102156;-77
2022/03/28 00:11:18;;;;;;;22.27;8.73;;;;;;;3.52;29.24;101817.60;124946;1099;104169;-78
2022/03/28 00:13:49;;;;;;;24.93;9.13;;;;;;;3.51;29.46;101811.52;124800;1099;103761;-78
2022/03/28 00:16:20;;;;;;;24.73;9.10;;;;;;;3.51;29.28;101816.70;124515;1099;104265;-78
2022/03/28 00:18:50;;;;;;;23.57;8.97;;;;;;;3.51;29.43;101808.02;124821;1098;104112;-78
2022/03/28 00:21:21;;;;;;;23.55;8.60;;;;;;;3.52;28.96;101809.81;124883;1098;102293;-78
2022/03/28 00:23:52;;;;;;;20.90;8.55;;;;;;;3.52;28.96;101821.13;124879;1099;102797;-78
2022/03/28 00:26:22;;;;;;;22.23;8.13;;;;;;;3.51;29.37;101818.41;124818;1099;102675;-78
2022/03/28 00:28:54;;;;;;;22.33;8.20;;;;;;;3.50;29.56;101822.66;124892;1099;104248;-78
2022/03/28 00:31:24;;;;;;;24.25;9.00;;;;;;;3.46;29.71;101824.86;124799;1099;104101;-78
2022/03/28 00:33:54;;;;;;;21.33;7.87;;;;;;;3.42;29.42;101823.70;124754;1099;104245;-78
2022/03/28 00:36:25;;;;;;;21.37;8.30;;;;;;;3.39;29.33;101821.73;124851;1098;104245;-78
2022/03/28 00:38:54;;;;;;;19.50;8.20;;;;;;;3.38;29.46;101819.02;124898;1098;102982;-78
2022/03/28 00:41:24;;;;;;;21.43;8.07;;;;;;;3.35;29.80;101821.34;124524;1099;104386;-78
2022/03/28 00:43:58;;;;;;;20.00;7.67;;;;;;;3.32;29.85;101822.02;125001;1099;102819;-78
2022/03/28 00:46:28;;;;;;;21.23;8.05;;;;;;;3.30;29.67;101815.77;124413;1099;104163;-78
2022/03/28 00:48:58;;;;;;;22.43;8.87;;;;;;;3.27;29.96;101812.01;124378;1099;104204;-79
2022/03/28 00:51:27;;;;;;;22.30;8.37;;;;;;;3.26;29.71;101813.70;124807;1099;103373;-78
2022/03/28 00:53:58;;;;;;;25.60;9.50;;;;;;;3.26;29.51;101829.27;124397;1099;104227;-78
2022/03/28 00:56:29;;;;;;;19.67;7.87;;;;;;;3.24;30.15;101818.77;124378;1099;104211;-78
2022/03/28 00:58:59;;;;;;;24.97;8.00;;;;;;;3.24;30.06;101818.77;124869;1099;102787;-78
2022/03/28 01:01:29;;;;;;;22.20;8.07;;;;;;;3.24;29.94;101820.42;124823;1097;104297;-79
2022/03/28 01:03:59;;;;;;;22.60;8.03;;;;;;;3.26;29.56;101825.74;124782;1098;104169;-79
2022/03/28 01:06:31;;;;;;;18.20;7.30;;;;;;;3.21;29.97;101815.90;124745;1099;104230;-78
2022/03/28 01:09:01;;;;;;;21.30;8.37;;;;;;;3.20;29.84;101815.77;124888;1099;103184;-78
2022/03/28 01:11:34;;;;;;;25.73;8.13;;;;;;;3.17;29.97;101825.88;124727;1099;104297;-78
2022/03/28 01:14:04;;;;;;;22.03;7.97;;;;;;;3.15;30.34;101825.74;124349;1099;104396;-78
2022/03/28 01:18:05;;;;;;;24.57;8.63;;;;;;;3.13;30.08;101819.53;124416;1099;104201;-78
2022/03/28 01:19:26;;;;;;;22.67;9.07;;;;;;;3.08;30.16;101814.70;124499;1099;104061;-78
2022/03/28 01:21:55;;;;;;;22.37;8.87;;;;;;;3.03;30.07;101822.08;124495;1099;101840;-78
2022/03/28 01:24:25;;;;;;;20.47;8.40;;;;;;;2.99;30.45;101822.58;124861;1099;102768;-78
2022/03/28 01:26:56;;;;;;;24.23;8.17;;;;;;;2.96;30.25;101824.91;124894;1099;104163;-78
2022/03/28 01:29:26;;;;;;;23.60;8.80;;;;;;;2.89;30.64;101818.28;124842;1099;102460;-78
2022/03/28 01:31:55;;;;;;;24.40;8.77;;;;;;;2.79;30.93;101816.58;124692;1099;104057;-78
2022/03/28 01:34:25;;;;;;;24.90;8.45;;;;;;;2.73;30.69;101816.03;124427;1102;104213;-78
2022/03/28 01:36:55;;;;;;;24.23;10.07;;;;;;;2.66;30.78;101816.26;124819;1099;102766;-78
2022/03/28 01:39:26;;;;;;;26.03;10.60;;;;;;;2.59;31.00;101824.28;124862;1098;104162;-78
2022/03/28 01:41:56;;;;;;;27.53;10.23;;;;;;;2.51;30.83;101827.09;124863;1099;102612;-78
2022/03/28 01:44:25;;;;;;;24.60;10.20;;;;;;;2.50;30.80;101826.95;124821;1099;102413;-78
2022/03/28 01:46:54;;;;;;;25.97;10.10;;;;;;;2.54;30.66;101822.94;124823;1099;104051;-78
2022/03/28 01:49:26;;;;;;;26.90;10.47;;;;;;;2.54;30.94;101822.94;124881;1099;102145;-78
2022/03/28 01:51:56;;;;;;;26.77;11.30;;;;;;;2.48;31.15;101821.63;124828;1099;104235;-78
2022/03/28 01:54:26;;;;;;;28.53;11.73;;;;;;;2.41;30.87;101820.95;124830;1099;104351;-78
2022/03/28 01:56:55;;;;;;;27.23;12.57;;;;;;;2.35;30.86;101823.87;124776;1099;102915;-78
2022/03/28 01:59:25;;;;;;;24.97;11.77;;;;;;;2.31;30.67;101835.66;124829;1098;104201;-78
2022/03/28 02:01:54;;;;;;;27.03;11.80;;;;;;;2.34;31.51;101820.39;124809;1099;102030;-78
2022/03/28 02:04:25;;;;;;;26.10;11.47;;;;;;;2.35;31.55;101818.70;124797;1099;104175;-78
2022/03/28 02:06:54;;;;;;;26.60;11.73;;;;;;;2.37;31.25;101824.02;124816;1099;104405;-78
2022/03/28 02:09:25;;;;;;;25.43;11.30;;;;;;;2.36;31.22;101822.22;124739;1099;104510;-78
2022/03/28 02:11:55;;;;;;;24.07;11.40;;;;;;;2.30;31.03;101827.75;124827;1099;104208;-77
2022/03/28 02:14:26;;;;;;;28.53;12.67;;;;;;;2.22;31.21;101828.75;124802;1099;104246;-78
2022/03/28 02:16:56;;;;;;;26.20;12.33;;;;;;;2.22;31.70;101833.92;124315;1099;104291;-78
2022/03/28 02:19:27;;;;;;;29.73;12.33;;;;;;;2.20;31.72;101831.20;124285;1102;104259;-78
2022/03/28 02:21:56;;;;;;;25.07;11.30;;;;;;;2.18;31.45;101827.54;124299;1102;104351;-78
2022/03/28 02:24:27;;;;;;;23.70;10.75;;;;;;;2.14;31.41;101830.64;124337;1099;104179;-78
2022/03/28 02:26:58;;;;;;;27.47;11.33;;;;;;;2.13;31.44;101827.13;124280;1102;104533;-78
2022/03/28 02:29:28;;;;;;;23.13;10.17;;;;;;;2.11;32.22;101822.59;124295;1102;104370;-78
2022/03/28 02:31:58;;;;;;;22.23;10.70;;;;;;;2.07;32.54;101831.77;124326;1099;104171;-78
2022/03/28 02:34:28;;;;;;;25.73;10.57;;;;;;;1.99;31.86;101837.91;124345;1099;104208;-78
2022/03/28 02:36:57;;;;;;;23.57;10.30;;;;;;;1.93;32.49;101835.69;124249;1102;104477;-78
2022/03/28 02:39:27;;;;;;;29.15;11.15;;;;;;;1.94;32.05;101836.59;124277;1099;104233;-77
2022/03/28 02:42:00;;;;;;;23.47;10.50;;;;;;;1.94;32.43;101837.48;124356;1099;104233;-78
2022/03/28 02:44:30;;;;;;;24.77;10.50;;;;;;;1.95;32.14;101844.50;124277;1102;104245;-78
2022/03/28 02:46:59;;;;;;;22.57;10.67;;;;;;;1.96;32.27;101835.97;124268;1100;104352;-78
2022/03/28 02:49:29;;;;;;;25.63;11.00;;;;;;;1.96;32.42;101835.04;124742;1099;102422;-78
2022/03/28 02:51:59;;;;;;;25.05;11.40;;;;;;;1.88;33.04;101834.34;124821;1099;102768;-78
2022/03/28 02:54:29;;;;;;;24.57;10.60;;;;;;;1.80;32.36;101833.63;124845;1099;104196;-78
2022/03/28 02:57:00;;;;;;;25.47;11.00;;;;;;;1.71;33.04;101835.37;124857;1099;104192;-77
2022/03/28 02:59:32;;;;;;;29.17;11.70;;;;;;;1.60;33.14;101830.88;124743;1099;104363;-78
2022/03/28 03:02:03;;;;;;;25.53;11.17;;;;;;;1.49;33.28;101827.30;124848;1099;104240;-78
2022/03/28 03:04:33;;;;;;;26.87;11.77;;;;;;;1.41;33.24;101817.92;124419;1099;104204;-78
2022/03/28 03:07:03;;;;;;;24.73;11.53;;;;;;;1.32;33.11;101815.38;124781;1099;102784;-78
2022/03/28 03:09:33;;;;;;;23.97;11.93;;;;;;;1.25;32.97;101813.00;124725;1099;104223;-77
2022/03/28 03:12:03;;;;;;;24.23;11.30;;;;;;;1.21;33.65;101814.36;124757;1099;104172;-78
2022/03/28 03:14:33;;;;;;;27.20;12.73;;;;;;;1.15;33.91;101805.12;124750;1099;102441;-77
2022/03/28 03:17:03;;;;;;;26.57;11.63;;;;;;;1.07;34.15;101813.05;124843;1099;102643;-78
2022/03/28 03:19:33;;;;;;;26.07;11.33;;;;;;;1.00;34.00;101817.53;124863;1099;102925;-78
2022/03/28 03:22:02;;;;;;;25.37;11.43;;;;;;;0.91;34.24;101816.66;124840;1099;104238;-77
2022/03/28 03:24:34;;;;;;;28.90;11.50;;;;;;;0.83;34.68;101816.82;124858;1099;102800;-77
2022/03/28 03:27:04;;;;;;;26.63;11.90;;;;;;;0.82;34.68;101822.73;124886;1098;104300;-78
2022/03/28 03:29:34;;;;;;;28.17;10.70;;;;;;;0.80;34.92;101818.21;124887;1099;102822;-77
2022/03/28 03:32:04;;;;;;;22.03;9.47;;;;;;;0.77;34.75;101820.50;125832;1099;104242;-78
2022/03/28 03:34:35;;;;;;;26.40;10.45;;;;;;;0.78;35.39;101817.13;125074;1099;104191;-78
2022/03/28 03:37:06;;;;;;;23.50;9.40;;;;;;;0.75;34.57;101815.19;125125;1099;102788;-77
2022/03/28 03:39:36;;;;;;;20.97;8.80;;;;;;;0.70;35.05;101817.33;125080;1099;104229;-77
2022/03/28 03:42:08;;;;;;;24.67;9.70;;;;;;;0.64;35.20;101814.16;125093;1099;104197;-78
2022/03/28 03:44:37;;;;;;;24.77;9.93;;;;;;;0.62;35.75;101810.48;125300;1099;102464;-78
2022/03/28 03:47:07;;;;;;;23.63;10.47;;;;;;;0.58;34.80;101808.39;125074;1099;104540;-78
2022/03/28 03:49:37;;;;;;;27.13;9.87;;;;;;;0.61;34.93;101811.27;124950;1099;104179;-77
2022/03/28 03:52:10;;;;;;;25.07;9.40;;;;;;;0.67;34.87;101801.53;124831;1099;104204;-77
2022/03/28 03:54:40;;;;;;;30.23;9.50;;;;;;;0.71;34.49;101797.55;124943;1099;104204;-76
2022/03/28 03:57:08;;;;;;;22.60;9.57;;;;;;;0.73;34.47;101800.28;124899;1099;102013;-77
2022/03/28 03:59:38;;;;;;;25.67;9.17;;;;;;;0.77;34.81;101792.08;124933;1099;104207;-77
2022/03/28 04:02:09;;;;;;;25.13;8.70;;;;;;;0.84;35.04;101791.88;124687;1099;104350;-77
2022/03/28 04:04:39;;;;;;;21.07;8.70;;;;;;;0.83;35.03;101780.64;124877;1099;104166;-77
2022/03/28 04:07:08;;;;;;;21.17;7.70;;;;;;;0.82;35.37;101780.49;124725;1099;102244;-77
2022/03/28 04:09:38;;;;;;;21.70;7.90;;;;;;;0.77;35.21;101782.64;124797;1099;104248;-77
2022/03/28 04:12:09;;;;;;;18.33;7.57;;;;;;;0.73;35.74;101780.52;124792;1099;102126;-77
2022/03/28 04:14:39;;;;;;;24.20;8.23;;;;;;;0.69;35.39;101787.08;124773;1099;104172;-77
2022/03/28 04:17:10;;;;;;;21.43;8.30;;;;;;;0.68;35.18;101785.24;124719;1099;102262;-76
2022/03/28 04:19:40;;;;;;;23.63;8.43;;;;;;;0.68;35.37;101787.83;124694;1099;111959;-75
2022/03/28 04:22:10;;;;;;;23.13;8.60;;;;;;;0.68;35.79;101794.67;124757;1099;104255;-76
2022/03/28 04:24:41;;;;;;;24.57;8.27;;;;;;;0.68;35.93;101787.83;124677;1099;104631;-77
2022/03/28 04:27:12;;;;;;;18.97;8.40;;;;;;;0.69;35.52;101783.59;124802;1099;104238;-77
2022/03/28 04:29:43;;;;;;;23.70;9.23;;;;;;;0.74;35.52;101782.34;124803;1099;104335;-78
2022/03/28 04:32:13;;;;;;;26.40;10.27;;;;;;;0.80;35.71;101779.45;124730;1098;104232;-78
2022/03/28 04:34:43;;;;;;;24.03;9.10;;;;;;;0.87;35.63;101779.25;124812;1099;104351;-76
2022/03/28 04:37:12;;;;;;;27.00;8.83;;;;;;;0.98;35.89;101785.44;124770;1099;104321;-76
2022/03/28 04:39:51;;;;;;;20.50;8.17;;;;;;;1.09;35.76;101779.59;124764;1099;104242;-77
2022/03/28 04:42:20;;;;;;;25.87;9.43;;;;;;;1.18;35.49;101795.07;124759;1099;104304;-76
2022/03/28 04:44:49;;;;;;;21.63;8.17;;;;;;;1.25;35.73;101802.66;124784;1099;102947;-76
2022/03/28 04:47:18;;;;;;;23.10;9.07;;;;;;;1.30;35.73;101810.84;124846;1099;101890;-77
2022/03/28 04:49:48;;;;;;;34.57;10.57;;;;;;;1.32;35.97;101804.13;124719;1099;104087;-76
2022/03/28 04:52:17;;;;;;;26.97;10.83;;;;;;;1.39;35.43;101815.19;124766;1099;102934;-77
2022/03/28 04:54:50;;;;;;;27.60;10.77;;;;;;;1.48;35.95;101812.56;124773;1099;104313;-77
2022/03/28 04:57:20;;;;;;;28.13;10.73;;;;;;;1.60;35.73;101815.36;124766;1099;104338;-77
2022/03/28 04:59:50;;;;;;;34.23;11.10;;;;;;;1.68;36.11;101819.55;124791;1099;102761;-77
2022/03/28 05:02:19;;;;;;;27.77;10.60;;;;;;;1.66;35.61;101802.98;124697;1099;104269;-77
2022/03/28 05:04:48;;;;;;;24.47;10.90;;;;;;;1.83;35.84;101809.72;125066;1099;102316;-77
2022/03/28 05:07:25;;;;;;;27.27;9.57;;;;;;;1.84;35.95;101818.38;124795;1099;104277;-76
2022/03/28 05:09:55;;;;;;;25.27;9.40;;;;;;;1.79;35.83;101818.89;124753;1099;102880;-77
2022/03/28 05:12:25;;;;;;;20.37;8.87;;;;;;;1.74;36.49;101812.36;124356;1099;104156;-77
2022/03/28 05:14:56;;;;;;;24.10;9.40;;;;;;;1.70;36.24;101811.94;124771;1099;104226;-78
2022/03/28 05:17:26;;;;;;;24.53;9.07;;;;;;;1.68;36.54;101811.80;124729;1099;104159;-76
2022/03/28 05:19:56;;;;;;;24.13;10.10;;;;;;;1.71;36.40;101819.84;124738;1099;102919;-76
2022/03/28 05:22:26;;;;;;;27.47;11.63;;;;;;;1.74;36.60;101812.36;124692;1099;104220;-76
2022/03/28 05:24:56;;;;;;;27.83;12.20;;;;;;;1.79;36.43;101811.12;124694;1099;102687;-76
2022/03/28 05:27:26;;;;;;;26.57;11.50;;;;;;;1.83;36.81;101809.72;124323;1099;103958;-77
2022/03/28 05:29:58;;;;;;;23.00;9.83;;;;;;;1.91;37.02;101800.06;124725;1099;104204;-78
2022/03/28 05:32:30;;;;;;;21.93;9.40;;;;;;;2.00;36.60;101806.08;124886;1099;104210;-77
2022/03/28 05:34:59;;;;;;;28.13;9.70;;;;;;;2.08;36.99;101805.09;124856;1099;104280;-78
2022/03/28 05:37:33;;;;;;;26.90;10.53;;;;;;;2.12;36.73;101790.73;125111;1099;104178;-79
2022/03/28 05:40:05;;;;;;;26.03;11.13;;;;;;;2.21;36.53;101785.48;126142;1098;102930;-79
2022/03/28 05:42:36;;;;;;;28.77;10.83;;;;;;;2.28;36.28;101783.58;125998;1099;102239;-81
2022/03/28 05:45:09;;;;;;;28.33;12.30;;;;;;;2.38;36.98;101785.30;125807;1099;102417;-80
2022/03/28 05:47:49;;;;;;;28.95;11.75;;;;;;;2.46;36.64;101778.20;126048;1098;104182;-80
2022/03/28 05:50:21;;;;;;;30.63;12.23;;;;;;;2.52;36.63;101773.57;126159;1099;104204;-80
2022/03/28 05:52:51;;;;;;;25.87;10.47;;;;;;;2.64;36.44;101773.75;125108;1099;103949;-77
2022/03/28 05:55:22;;;;;;;25.77;9.90;;;;;;;2.74;36.52;101768.58;124550;1099;104303;-77
2022/03/28 05:57:52;;;;;;;23.97;8.63;;;;;;;2.86;36.53;101761.88;124949;1099;104226;-78
2022/03/28 06:00:25;;;;;;;23.00;10.67;;;;;;;3.00;36.53;101760.48;125393;1099;104249;-77
2022/03/28 06:02:59;;;;;;;25.03;11.03;;;;;;;3.13;36.35;101765.06;125031;1099;104424;-78
2022/03/28 06:05:32;;;;;;;29.53;10.80;;;;;;;3.28;36.37;101761.95;126019;1099;102968;-80
2022/03/28 06:08:03;;;;;;;23.83;10.40;;;;;;;3.42;36.25;101757.13;125417;1102;101831;-79
2022/03/28 06:10:38;;;;;;;25.57;10.43;;;;;;;3.57;35.76;101751.44;125595;1102;103082;-79
2022/03/28 06:13:12;;;;;;;23.57;10.50;;;;;;;3.71;35.52;101749.97;125361;1102;104079;-79
2022/03/28 06:15:51;;;;;;;25.13;10.50;;;;;;;3.87;35.91;101750.47;125225;1102;104333;-80
2022/03/28 06:18:26;;;;;;;24.90;11.03;;;;;;;4.02;35.85;101740.45;125403;1102;104224;-81
2022/03/28 06:20:57;;;;;;;31.73;12.07;;;;;;;4.16;35.82;101736.38;124934;1102;104258;-79
2022/03/28 06:23:31;;;;;;;28.77;12.10;;;;;;;4.34;36.10;101738.64;125197;1102;104236;-81
2022/03/28 06:26:11;;;;;;;27.40;12.00;;;;;;;4.56;36.21;101730.86;125337;1102;102845;-80
2022/03/28 06:28:55;;;;;;;28.93;11.47;;;;;;;4.73;35.97;101732.20;125074;1101;104201;-81
2022/03/28 06:31:37;;;;;;;26.37;11.80;;;;;;;4.88;36.04;101727.28;125085;1102;104204;-80
2022/03/28 06:34:12;;;;;;;30.13;12.17;;;;;;;5.00;35.79;101726.56;125241;1099;104297;-80
2022/03/28 06:36:58;;;;;;;26.63;11.37;;;;;;;5.14;35.60;101725.03;125165;1099;104411;-80
2022/03/28 06:39:46;;;;;;;31.13;10.87;;;;;;;5.33;35.97;101724.74;125660;1099;102289;-82
2022/03/28 06:42:21;;;;;;;20.57;8.83;;;;;;;5.54;35.15;101724.55;125170;1099;104189;-81
2022/03/28 06:44:56;;;;;;;18.35;7.35;;;;;;;5.75;35.34;101723.56;125721;1099;102612;-80
2022/03/28 06:50:13;;;;;;;19.67;6.10;;;;;;;6.26;35.07;101716.91;125393;1099;104182;-80
2022/03/28 06:52:44;;;;;;;15.97;5.40;;;;;;;6.45;35.17;101707.77;125684;1099;112061;-79
2022/03/28 06:55:15;;;;;;;17.53;5.70;;;;;;;6.62;34.53;101703.76;125859;1099;102439;-80
2022/03/28 06:57:49;;;;;;;15.27;4.80;;;;;;;6.85;34.88;101700.16;125819;1099;104260;-80
2022/03/28 07:00:22;;;;;;;15.53;5.20;;;;;;;7.03;34.26;101700.55;125715;1099;104226;-81
2022/03/28 07:03:41;;;;;;;15.87;5.13;;;;;;;7.18;34.41;101691.17;125934;1099;104338;-81
2022/03/28 07:06:52;;;;;;;14.50;4.87;;;;;;;7.40;34.05;101687.37;125885;1098;104130;-81
2022/03/28 07:09:58;;;;;;;9.53;4.00;;;;;;;7.64;34.00;101693.34;125423;1102;104270;-81
2022/03/28 07:12:56;;;;;;;;;;;;;;;;;;;;;
2022/03/28 07:15:48;;;;;;;14.67;3.70;;;;;;;8.06;32.95;101681.28;125052;1102;102711;-79
2022/03/28 07:18:48;;;;;;;15.33;4.60;;;;;;;8.31;32.46;101676.74;125066;1102;103472;-78
2022/03/28 07:21:18;;;;;;;10.50;3.60;;;;;;;8.50;32.76;101678.84;125035;1102;104249;-78
2022/03/28 07:26:44;;;;;;;11.27;3.70;;;;;;;8.87;31.02;101674.17;125030;1102;104380;-80
2022/03/28 07:29:17;;;;;;;7.73;3.20;;;;;;;9.06;31.44;101667.44;125085;1102;104156;-80
2022/03/28 07:31:50;;;;;;;8.80;3.07;;;;;;;9.21;31.60;101662.20;125005;1102;104281;-79
2022/03/28 07:34:35;;;;;;;8.70;2.97;;;;;;;9.37;31.09;101658.80;125074;1102;102290;-79
2022/03/28 07:37:09;;;;;;;9.90;3.40;;;;;;;9.50;30.64;101656.97;125143;1102;104236;-78
2022/03/28 07:39:40;;;;;;;11.22;3.40;;;;;;;9.66;30.99;101650.00;125053;1102;104187;-78
2022/03/28 07:42:17;;;;;;;6.70;2.83;;;;;;;9.85;30.58;101652.88;125043;1102;102429;-79
2022/03/28 07:44:55;;;;;;;8.30;3.20;;;;;;;9.97;30.28;101651.75;124366;1102;104069;-77
2022/03/28 07:47:26;;;;;;;8.30;2.73;;;;;;;10.03;28.95;101658.23;125337;1099;102697;-77
2022/03/28 07:50:02;;;;;;;8.07;3.13;;;;;;;10.07;29.53;101648.84;124853;1099;102769;-78
2022/03/28 07:52:34;;;;;;;8.23;2.93;;;;;;;10.14;29.48;101648.34;125216;1099;104213;-80
2022/03/28 07:55:06;;;;;;;8.60;3.33;;;;;;;10.25;28.38;101644.63;124884;1103;104251;-80
2022/03/28 07:57:39;;;;;;;7.47;3.13;;;;;;;10.33;28.54;101650.33;124678;1103;102971;-80
2022/03/28 08:00:28;;;;;;;6.90;3.10;;;;;;;10.41;28.87;101641.15;125476;1102;104230;-81
2022/03/28 08:03:12;;;;;;;7.37;3.00;;;;;;;10.48;27.33;101634.50;125346;1099;102451;-79
2022/03/28 08:05:53;;;;;;;8.23;3.10;;;;;;;10.56;27.72;101629.67;125168;1102;104213;-81
2022/03/28 08:08:40;;;;;;;9.60;3.30;;;;;;;10.65;28.37;101619.66;125323;1100;102613;-81
2022/03/28 08:11:23;;;;;;;7.00;3.23;;;;;;;10.72;27.38;101632.31;125320;1099;104220;-79
2022/03/28 08:14:09;;;;;;;6.80;2.90;;;;;;;10.79;27.98;101618.66;125124;1102;104473;-78
2022/03/28 08:16:39;;;;;;;8.23;2.80;;;;;;;10.92;27.29;101624.56;125086;1101;104168;-78
2022/03/28 08:19:09;;;;;;;10.17;3.13;;;;;;;11.01;27.20;101625.04;125025;1102;103006;-78
2022/03/28 08:21:43;;;;;;;8.37;2.67;;;;;;;11.03;26.71;101620.79;125022;1102;104246;-79
2022/03/28 08:24:12;;;;;;;7.10;2.87;;;;;;;11.03;26.97;101612.91;124434;1099;103108;-78
2022/03/28 08:26:42;;;;;;;8.33;3.30;;;;;;;11.01;27.22;101609.28;124565;1099;102976;-80
2022/03/28 08:29:14;;;;;;;5.95;2.70;;;;;;;11.11;26.91;101608.95;125252;1102;104284;-79
2022/03/28 08:31:53;;;;;;;6.83;3.20;;;;;;;11.26;26.22;101594.77;125751;1100;104315;-80
2022/03/28 08:34:24;;;;;;;6.40;2.83;;;;;;;11.34;26.43;101598.68;125964;1099;104204;-79
2022/03/28 08:37:01;;;;;;;7.40;2.70;;;;;;;11.39;25.90;101597.20;125651;1099;104169;-78
2022/03/28 08:39:34;;;;;;;6.17;2.80;;;;;;;11.37;25.49;101577.81;125530;1099;104389;-78
2022/03/28 08:42:08;;;;;;;8.53;3.47;;;;;;;11.59;25.28;101592.02;125899;1099;102532;-78
2022/03/28 08:44:49;;;;;;;11.30;3.30;;;;;;;11.72;25.52;101589.17;127464;1098;101965;-78
2022/03/28 08:50:20;;;;;;;9.27;3.90;;;;;;;11.81;25.56;101576.47;125924;1099;102062;-79
2022/03/28 08:52:54;;;;;;;9.47;3.50;;;;;;;11.95;25.60;101582.42;125304;1099;104163;-79
2022/03/28 08:55:38;;;;;;;7.83;3.27;;;;;;;11.97;25.56;101566.70;125675;1099;104188;-78
2022/03/28 08:58:14;;;;;;;9.97;3.50;;;;;;;11.99;25.43;101581.71;126588;1097;103090;-81
2022/03/28 09:00:49;;;;;;;8.17;3.70;;;;;;;12.09;24.41;101566.36;125257;1099;104211;-79
2022/03/28 09:03:40;;;;;;;11.70;3.63;;;;;;;12.21;24.88;101561.67;125063;1099;103298;-79
2022/03/28 09:06:38;;;;;;;15.17;4.10;;;;;;;12.32;24.95;101554.27;125224;1101;104284;-79
2022/03/28 09:09:14;;;;;;;7.93;3.30;;;;;;;12.39;25.10;101551.09;125800;1099;104211;-80
2022/03/28 09:12:08;;;;;;;9.73;3.73;;;;;;;12.42;24.55;101548.59;126071;1099;102825;-80
2022/03/28 09:14:45;;;;;;;11.00;3.70;;;;;;;12.42;24.07;101530.17;126010;1099;101997;-80
2022/03/28 09:17:24;;;;;;;10.13;3.70;;;;;;;12.46;24.62;101537.36;125954;1099;104252;-80
2022/03/28 09:20:01;;;;;;;9.03;3.77;;;;;;;12.51;24.35;101520.05;124930;1099;102817;-79
2022/03/28 09:22:41;;;;;;;7.85;3.15;;;;;;;12.56;23.13;101523.78;125238;1099;104251;-78
2022/03/28 09:25:17;;;;;;;9.33;3.40;;;;;;;12.56;23.46;101521.14;125484;1099;102688;-79
2022/03/28 09:28:19;;;;;;;9.77;3.80;;;;;;;12.58;23.86;101505.42;125252;1099;104281;-80
2022/03/28 09:30:55;;;;;;;11.03;3.30;;;;;;;12.62;23.91;101506.44;124623;1102;102656;-81
2022/03/28 09:33:28;;;;;;;9.33;3.93;;;;;;;12.70;23.89;101510.30;124637;1102;104236;-79
2022/03/28 09:36:36;;;;;;;10.77;3.53;;;;;;;12.76;24.09;101503.58;124905;1102;104499;-79
2022/03/28 09:39:20;;;;;;;9.80;3.73;;;;;;;12.82;23.84;101502.03;125157;1102;103004;-79
2022/03/28 09:42:05;;;;;;;11.10;3.73;;;;;;;12.86;23.33;101488.17;125417;1102;104300;-80
2022/03/28 09:44:39;;;;;;;9.87;3.60;;;;;;;12.88;23.69;101479.47;125149;1102;104083;-78
2022/03/28 09:47:19;;;;;;;10.47;3.80;;;;;;;12.91;23.67;101481.34;125113;1102;103480;-79
2022/03/28 09:52:56;;;;;;;9.30;3.70;;;;;;;13.05;23.40;101459.09;125579;1102;102405;-81
2022/03/28 09:55:44;;;;;;;8.47;3.53;;;;;;;13.23;23.29;101455.41;125565;1099;104226;-81
2022/03/28 09:58:38;;;;;;;8.60;4.03;;;;;;;13.28;23.45;101448.60;126020;1099;102268;-80
2022/03/28 10:01:15;;;;;;;8.77;3.90;;;;;;;13.31;23.11;101446.09;125043;1099;102329;-79
2022/03/28 10:04:08;;;;;;;;;;;;;;;;;;;;;
2022/03/28 10:07:34;;;;;;;10.40;3.80;;;;;;;13.45;22.95;101434.38;126062;1099;118603;-81
2022/03/28 10:10:24;;;;;;;9.53;3.90;;;;;;;13.57;22.87;101426.05;125786;1102;102610;-80
2022/03/28 10:13:05;;;;;;;8.43;3.70;;;;;;;13.62;21.80;101419.20;124820;1102;101973;-79
2022/03/28 10:16:15;;;;;;;11.80;4.20;;;;;;;13.75;22.63;101422.30;124937;1102;102666;-78
2022/03/28 10:18:57;;;;;;;8.33;4.13;;;;;;;13.75;22.33;101404.73;125197;1105;103152;-80
2022/03/28 10:21:38;;;;;;;9.97;3.73;;;;;;;13.81;22.22;101394.41;124883;1106;103228;-80
2022/03/28 10:24:26;;;;;;;8.00;3.60;;;;;;;13.83;22.89;101392.70;125341;1102;104261;-81
2022/03/28 10:27:24;;;;;;;10.07;3.97;;;;;;;13.90;22.37;101387.66;125256;1102;102708;-80
2022/03/28 10:30:30;;;;;;;;;;;;;;;;;;;;;
2022/03/28 10:33:25;;;;;;;11.20;4.80;;;;;;;14.00;22.17;101372.21;125113;1105;102888;-81
2022/03/28 10:36:47;;;;;;;10.03;4.12;;;;;;;14.05;22.29;101368.84;125128;1102;104480;-82
2022/03/28 10:39:36;;;;;;;9.20;3.83;;;;;;;14.06;21.81;101366.27;125173;1105;104297;-81
2022/03/28 10:42:43;;;;;;;13.45;4.80;;;;;;;14.11;21.77;101364.67;125181;1102;103199;-80
2022/03/28 10:45:55;;;;;;;11.73;4.23;;;;;;;14.13;21.33;101352.45;124854;1105;102735;-80
2022/03/28 10:52:32;;;;;;;9.93;3.93;;;;;;;14.18;21.21;101336.78;125460;1102;104165;-79
2022/03/28 10:58:16;;;;;;;9.53;4.30;;;;;;;14.24;21.38;101314.95;126040;1099;102197;-82
2022/03/28 11:01:30;;;;;;;15.33;4.30;;;;;;;14.37;21.49;101322.45;126031;1098;102110;-82
2022/03/28 11:04:32;;;;;;;15.07;4.10;;;;;;;14.40;20.89;101319.91;126117;1099;102430;-82
2022/03/28 11:07:06;;;;;;;14.63;4.63;;;;;;;14.43;21.42;101311.17;126211;1099;103170;-80
2022/03/28 11:13:24;;;;;;;12.23;4.10;;;;;;;14.53;21.12;101292.16;125990;1099;101885;-79
2022/03/28 11:16:40;;;;;;;8.33;4.00;;;;;;;14.52;20.68;101285.98;126480;1099;102775;-82
2022/03/28 11:19:50;;;;;;;;;;;;;;;;;;;;;
2022/03/28 11:23:18;;;;;;;13.67;4.20;;;;;;;14.65;21.09;101258.24;126658;1099;104166;-80
2022/03/28 11:26:14;;;;;;;9.70;4.03;;;;;;;14.70;20.38;101251.34;126746;1099;102665;-81
2022/03/28 11:29:12;;;;;;;15.47;4.63;;;;;;;14.74;20.20;101241.80;125821;1099;104251;-80
2022/03/28 11:32:17;;;;;;;12.27;4.20;;;;;;;14.79;19.69;101237.53;125630;1099;111077;-81
2022/03/28 11:35:28;;;;;;;10.33;4.00;;;;;;;14.79;20.17;101232.25;126251;1099;102143;-80
2022/03/28 11:38:17;;;;;;;10.43;4.13;;;;;;;14.80;20.64;101235.78;125695;1100;103148;-80
2022/03/28 11:44:58;;;;;;;11.37;3.90;;;;;;;14.86;20.38;101207.78;126415;1093;103125;-77
2022/03/28 11:47:54;;;;;;;11.47;4.17;;;;;;;14.94;19.94;101208.01;125893;1100;104089;-79
2022/03/28 11:51:16;;;;;;;12.03;4.47;;;;;;;15.02;20.12;101198.58;125699;1102;102544;-80
2022/03/28 12:00:25;;;;;;;12.17;4.43;;;;;;;15.06;19.93;101171.36;126051;1102;101702;-80
2022/03/28 12:03:27;;;;;;;15.47;4.77;;;;;;;15.07;20.65;101165.23;125998;1102;101759;-80
2022/03/28 12:06:47;;;;;;;12.83;4.80;;;;;;;15.04;19.54;101162.51;125930;1102;104130;-79
2022/03/28 12:09:51;;;;;;;15.83;5.00;;;;;;;15.10;19.89;101154.75;125585;1102;103037;-81
2022/03/28 12:12:36;;;;;;;14.07;5.00;;;;;;;15.15;20.25;101146.06;125831;1100;103855;-81
2022/03/28 12:15:10;;;;;;;9.90;4.23;;;;;;;15.18;20.37;101119.72;125989;1102;101688;-79
2022/03/28 12:18:13;;;;;;;11.67;4.33;;;;;;;15.22;20.49;101122.48;125975;1099;111113;-79
2022/03/28 12:21:08;;;;;;;11.00;4.23;;;;;;;15.22;20.00;101111.91;126192;1099;104168;-78
2022/03/28 12:23:58;;;;;;;14.77;4.43;;;;;;;15.22;20.07;101103.05;126297;1099;102324;-81
2022/03/28 12:26:47;;;;;;;12.57;4.30;;;;;;;15.23;20.14;101099.56;125772;1102;104159;-80
2022/03/28 12:29:36;;;;;;;8.35;3.90;;;;;;;15.25;20.57;101092.56;126446;1099;104240;-80
2022/03/28 12:35:32;;;;;;;11.93;4.60;;;;;;;15.26;20.35;101083.79;126053;1099;102088;-80